sensor_id;sensor_type;location;lat;lon;timestamp;pressure;altitude;pressure_sealevel;temperature;humidity
86322;BME280;76978;42.798;23.336;2024-03-22T00:00:41;95704.13;;;7.23;44.22
86322;BME280;76978;42.798;23.336;2024-03-22T00:03:07;95692.69;;;7.16;44.80
86322;BME280;76978;42.798;23.336;2024-03-22T00:05:32;95702.59;;;7.09;44.99
86322;BME280;76978;42.798;23.336;2024-03-22T00:07:58;95700.56;;;7.02;46.08
86322;BME280;76978;42.798;23.336;2024-03-22T00:10:23;95697.16;;;6.90;46.07
86322;BME280;76978;42.798;23.336;2024-03-22T00:12:49;95693.06;;;6.87;46.28
86322;BME280;76978;42.798;23.336;2024-03-22T00:15:14;95694.94;;;6.85;45.99
86322;BME280;76978;42.798;23.336;2024-03-22T00:17:39;95700.38;;;6.81;45.52
86322;BME280;76978;42.798;23.336;2024-03-22T00:20:05;95691.28;;;6.77;45.73
86322;BME280;76978;42.798;23.336;2024-03-22T00:22:31;95683.00;;;6.73;44.36
86322;BME280;76978;42.798;23.336;2024-03-22T00:24:56;95691.00;;;6.68;44.46
86322;BME280;76978;42.798;23.336;2024-03-22T00:27:22;95692.75;;;6.68;44.92
86322;BME280;76978;42.798;23.336;2024-03-22T00:29:47;95686.00;;;6.67;45.29
86322;BME280;76978;42.798;23.336;2024-03-22T00:32:12;95693.25;;;6.73;44.44
86322;BME280;76978;42.798;23.336;2024-03-22T00:34:38;95691.50;;;6.74;44.38
86322;BME280;76978;42.798;23.336;2024-03-22T00:37:03;95699.09;;;6.75;44.51
86322;BME280;76978;42.798;23.336;2024-03-22T00:39:28;95695.59;;;6.76;44.84
86322;BME280;76978;42.798;23.336;2024-03-22T00:41:54;95694.38;;;6.69;44.66
86322;BME280;76978;42.798;23.336;2024-03-22T00:44:19;95689.03;;;6.72;45.30
86322;BME280;76978;42.798;23.336;2024-03-22T00:46:45;95689.75;;;6.74;44.81
86322;BME280;76978;42.798;23.336;2024-03-22T00:49:10;95682.25;;;6.71;44.68
86322;BME280;76978;42.798;23.336;2024-03-22T00:51:35;95673.44;;;6.75;44.37
86322;BME280;76978;42.798;23.336;2024-03-22T00:54:01;95679.59;;;6.73;44.06
86322;BME280;76978;42.798;23.336;2024-03-22T00:56:26;95683.19;;;6.70;44.48
86322;BME280;76978;42.798;23.336;2024-03-22T00:58:52;95685.28;;;6.65;44.20
86322;BME280;76978;42.798;23.336;2024-03-22T01:01:17;95688.28;;;6.59;44.70
86322;BME280;76978;42.798;23.336;2024-03-22T01:03:42;95689.91;;;6.60;44.75
86322;BME280;76978;42.798;23.336;2024-03-22T01:06:08;95694.09;;;6.61;44.58
86322;BME280;76978;42.798;23.336;2024-03-22T01:08:33;95692.69;;;6.57;44.56
86322;BME280;76978;42.798;23.336;2024-03-22T01:10:59;95698.25;;;6.51;44.59
86322;BME280;76978;42.798;23.336;2024-03-22T01:13:24;95702.25;;;6.31;45.20
86322;BME280;76978;42.798;23.336;2024-03-22T01:15:50;95696.44;;;6.16;45.79
86322;BME280;76978;42.798;23.336;2024-03-22T01:18:15;95708.97;;;6.08;46.03
86322;BME280;76978;42.798;23.336;2024-03-22T01:20:41;95714.91;;;5.96;46.47
86322;BME280;76978;42.798;23.336;2024-03-22T01:23:08;95701.38;;;5.81;46.27
86322;BME280;76978;42.798;23.336;2024-03-22T01:25:33;95707.34;;;5.69;47.09
86322;BME280;76978;42.798;23.336;2024-03-22T01:27:58;95708.38;;;5.53;47.44
86322;BME280;76978;42.798;23.336;2024-03-22T01:30:24;95706.72;;;5.52;48.08
86322;BME280;76978;42.798;23.336;2024-03-22T01:32:54;95704.47;;;5.48;47.48
86322;BME280;76978;42.798;23.336;2024-03-22T01:35:19;95698.66;;;5.46;47.09
86322;BME280;76978;42.798;23.336;2024-03-22T01:37:45;95698.44;;;5.49;47.27
86322;BME280;76978;42.798;23.336;2024-03-22T01:40:10;95702.41;;;5.53;47.59
86322;BME280;76978;42.798;23.336;2024-03-22T01:42:36;95713.41;;;5.68;47.15
86322;BME280;76978;42.798;23.336;2024-03-22T01:45:01;95711.84;;;5.78;46.75
86322;BME280;76978;42.798;23.336;2024-03-22T01:47:28;95712.44;;;5.81;47.10
86322;BME280;76978;42.798;23.336;2024-03-22T01:49:54;95704.28;;;5.76;46.76
86322;BME280;76978;42.798;23.336;2024-03-22T01:52:20;95712.66;;;5.78;47.13
86322;BME280;76978;42.798;23.336;2024-03-22T01:54:46;95703.47;;;5.76;46.92
86322;BME280;76978;42.798;23.336;2024-03-22T01:57:11;95708.16;;;5.69;47.26
86322;BME280;76978;42.798;23.336;2024-03-22T01:59:37;95702.44;;;5.66;46.93
86322;BME280;76978;42.798;23.336;2024-03-22T02:02:02;95706.63;;;5.67;46.86
86322;BME280;76978;42.798;23.336;2024-03-22T02:04:28;95701.63;;;5.65;46.72
86322;BME280;76978;42.798;23.336;2024-03-22T02:06:53;95705.72;;;5.55;46.97
86322;BME280;76978;42.798;23.336;2024-03-22T02:09:19;95705.91;;;5.52;47.73
86322;BME280;76978;42.798;23.336;2024-03-22T02:11:46;95707.97;;;5.47;47.81
86322;BME280;76978;42.798;23.336;2024-03-22T02:14:11;95710.81;;;5.42;47.63
86322;BME280;76978;42.798;23.336;2024-03-22T02:16:39;95708.78;;;5.35;47.54
86322;BME280;76978;42.798;23.336;2024-03-22T02:19:05;95711.53;;;5.32;47.70
86322;BME280;76978;42.798;23.336;2024-03-22T02:21:30;95713.25;;;5.31;47.43
86322;BME280;76978;42.798;23.336;2024-03-22T02:23:56;95709.38;;;5.26;47.92
86322;BME280;76978;42.798;23.336;2024-03-22T02:26:21;95714.72;;;5.22;49.03
86322;BME280;76978;42.798;23.336;2024-03-22T02:28:46;95714.72;;;5.22;48.12
86322;BME280;76978;42.798;23.336;2024-03-22T02:31:12;95709.69;;;5.21;47.83
86322;BME280;76978;42.798;23.336;2024-03-22T02:33:37;95715.31;;;5.26;47.91
86322;BME280;76978;42.798;23.336;2024-03-22T02:36:03;95715.94;;;5.30;47.50
86322;BME280;76978;42.798;23.336;2024-03-22T02:38:28;95719.00;;;5.22;47.42
86322;BME280;76978;42.798;23.336;2024-03-22T02:40:54;95720.22;;;5.16;47.38
86322;BME280;76978;42.798;23.336;2024-03-22T02:43:19;95711.28;;;5.09;47.12
86322;BME280;76978;42.798;23.336;2024-03-22T02:45:46;95717.34;;;5.08;48.02
86322;BME280;76978;42.798;23.336;2024-03-22T02:48:12;95725.94;;;5.07;47.83
86322;BME280;76978;42.798;23.336;2024-03-22T02:50:38;95725.34;;;5.16;48.59
86322;BME280;76978;42.798;23.336;2024-03-22T02:53:04;95714.72;;;5.22;47.25
86322;BME280;76978;42.798;23.336;2024-03-22T02:55:30;95726.69;;;5.35;48.20
86322;BME280;76978;42.798;23.336;2024-03-22T02:58:01;95731.09;;;5.33;47.36
86322;BME280;76978;42.798;23.336;2024-03-22T03:00:26;95735.69;;;5.28;47.25
86322;BME280;76978;42.798;23.336;2024-03-22T03:02:51;95730.06;;;5.22;47.35
86322;BME280;76978;42.798;23.336;2024-03-22T03:05:17;95737.22;;;5.17;47.16
86322;BME280;76978;42.798;23.336;2024-03-22T03:07:42;95741.50;;;5.04;48.45
86322;BME280;76978;42.798;23.336;2024-03-22T03:10:07;95739.09;;;4.88;48.57
86322;BME280;76978;42.798;23.336;2024-03-22T03:12:33;95743.44;;;4.74;49.83
86322;BME280;76978;42.798;23.336;2024-03-22T03:14:58;95748.41;;;4.62;49.88
86322;BME280;76978;42.798;23.336;2024-03-22T03:17:24;95749.66;;;4.70;50.70
86322;BME280;76978;42.798;23.336;2024-03-22T03:19:49;95751.25;;;4.85;50.53
86322;BME280;76978;42.798;23.336;2024-03-22T03:22:15;95746.06;;;4.99;49.94
86322;BME280;76978;42.798;23.336;2024-03-22T03:24:40;95754.50;;;5.14;50.29
86322;BME280;76978;42.798;23.336;2024-03-22T03:27:06;95757.28;;;5.23;49.85
86322;BME280;76978;42.798;23.336;2024-03-22T03:29:31;95749.78;;;5.20;49.12
86322;BME280;76978;42.798;23.336;2024-03-22T03:31:56;95748.69;;;5.12;49.71
86322;BME280;76978;42.798;23.336;2024-03-22T03:34:22;95755.19;;;5.03;50.39
86322;BME280;76978;42.798;23.336;2024-03-22T03:36:47;95767.28;;;5.01;50.56
86322;BME280;76978;42.798;23.336;2024-03-22T03:39:12;95771.13;;;4.94;50.95
86322;BME280;76978;42.798;23.336;2024-03-22T03:41:38;95767.25;;;4.88;51.01
86322;BME280;76978;42.798;23.336;2024-03-22T03:44:04;95759.94;;;4.82;50.30
86322;BME280;76978;42.798;23.336;2024-03-22T03:46:29;95769.41;;;4.68;50.01
86322;BME280;76978;42.798;23.336;2024-03-22T03:48:55;95772.75;;;4.41;51.19
86322;BME280;76978;42.798;23.336;2024-03-22T03:51:20;95775.25;;;4.14;51.60
86322;BME280;76978;42.798;23.336;2024-03-22T03:53:45;95778.72;;;4.27;52.08
86322;BME280;76978;42.798;23.336;2024-03-22T03:56:11;95773.50;;;4.29;52.13
86322;BME280;76978;42.798;23.336;2024-03-22T03:58:36;95772.22;;;4.22;52.70
86322;BME280;76978;42.798;23.336;2024-03-22T04:01:08;95780.63;;;4.24;52.65
86322;BME280;76978;42.798;23.336;2024-03-22T04:03:35;95787.91;;;4.30;52.10
86322;BME280;76978;42.798;23.336;2024-03-22T04:06:01;95793.59;;;4.35;51.61
86322;BME280;76978;42.798;23.336;2024-03-22T04:08:28;95784.59;;;4.42;51.57
86322;BME280;76978;42.798;23.336;2024-03-22T04:10:54;95793.09;;;4.43;51.50
86322;BME280;76978;42.798;23.336;2024-03-22T04:13:22;95800.50;;;4.47;51.32
86322;BME280;76978;42.798;23.336;2024-03-22T04:15:47;95795.66;;;4.43;51.76
86322;BME280;76978;42.798;23.336;2024-03-22T04:18:12;95794.81;;;4.42;51.50
86322;BME280;76978;42.798;23.336;2024-03-22T04:20:38;95797.47;;;4.41;51.59
86322;BME280;76978;42.798;23.336;2024-03-22T04:23:03;95815.28;;;4.42;52.07
86322;BME280;76978;42.798;23.336;2024-03-22T04:25:29;95814.34;;;4.43;51.86
86322;BME280;76978;42.798;23.336;2024-03-22T04:27:54;95814.91;;;4.48;51.88
86322;BME280;76978;42.798;23.336;2024-03-22T04:30:19;95816.47;;;4.51;53.02
86322;BME280;76978;42.798;23.336;2024-03-22T04:32:48;95813.06;;;4.50;52.76
86322;BME280;76978;42.798;23.336;2024-03-22T04:35:13;95823.75;;;4.57;53.22
86322;BME280;76978;42.798;23.336;2024-03-22T04:37:39;95825.09;;;4.62;53.19
86322;BME280;76978;42.798;23.336;2024-03-22T04:40:05;95826.38;;;4.70;52.44
86322;BME280;76978;42.798;23.336;2024-03-22T04:42:30;95820.06;;;4.75;52.67
86322;BME280;76978;42.798;23.336;2024-03-22T04:44:56;95829.09;;;4.81;52.49
86322;BME280;76978;42.798;23.336;2024-03-22T04:47:23;95832.28;;;4.84;51.79
86322;BME280;76978;42.798;23.336;2024-03-22T04:49:48;95819.22;;;4.89;52.29
86322;BME280;76978;42.798;23.336;2024-03-22T04:52:13;95824.84;;;4.94;51.54
86322;BME280;76978;42.798;23.336;2024-03-22T04:54:39;95824.66;;;4.97;51.54
86322;BME280;76978;42.798;23.336;2024-03-22T04:57:04;95823.47;;;5.03;52.07
86322;BME280;76978;42.798;23.336;2024-03-22T04:59:30;95822.22;;;5.08;51.96
86322;BME280;76978;42.798;23.336;2024-03-22T05:01:55;95820.22;;;5.13;51.51
86322;BME280;76978;42.798;23.336;2024-03-22T05:04:20;95823.59;;;5.14;51.34
86322;BME280;76978;42.798;23.336;2024-03-22T05:06:46;95830.03;;;5.19;51.14
86322;BME280;76978;42.798;23.336;2024-03-22T05:09:11;95833.22;;;5.10;52.19
86322;BME280;76978;42.798;23.336;2024-03-22T05:11:36;95832.97;;;5.01;52.52
86322;BME280;76978;42.798;23.336;2024-03-22T05:14:02;95826.84;;;5.03;52.83
86322;BME280;76978;42.798;23.336;2024-03-22T05:16:28;95835.94;;;5.07;53.18
86322;BME280;76978;42.798;23.336;2024-03-22T05:18:53;95840.72;;;5.26;52.11
86322;BME280;76978;42.798;23.336;2024-03-22T05:21:19;95843.94;;;5.42;52.18
86322;BME280;76978;42.798;23.336;2024-03-22T05:23:44;95835.38;;;5.56;52.29
86322;BME280;76978;42.798;23.336;2024-03-22T05:26:09;95843.56;;;5.61;51.27
86322;BME280;76978;42.798;23.336;2024-03-22T05:28:35;95847.38;;;5.68;51.82
86322;BME280;76978;42.798;23.336;2024-03-22T05:31:00;95854.84;;;5.71;52.29
86322;BME280;76978;42.798;23.336;2024-03-22T05:33:26;95845.03;;;5.78;51.59
86322;BME280;76978;42.798;23.336;2024-03-22T05:35:51;95854.59;;;5.89;52.34
86322;BME280;76978;42.798;23.336;2024-03-22T05:38:16;95855.66;;;5.99;52.06
86322;BME280;76978;42.798;23.336;2024-03-22T05:40:42;95848.34;;;6.05;51.69
86322;BME280;76978;42.798;23.336;2024-03-22T05:43:07;95848.56;;;6.15;52.08
86322;BME280;76978;42.798;23.336;2024-03-22T05:45:32;95863.34;;;6.24;51.73
86322;BME280;76978;42.798;23.336;2024-03-22T05:47:58;95860.16;;;6.33;49.87
86322;BME280;76978;42.798;23.336;2024-03-22T05:50:23;95858.38;;;6.47;49.57
86322;BME280;76978;42.798;23.336;2024-03-22T05:52:49;95857.66;;;6.57;49.50
86322;BME280;76978;42.798;23.336;2024-03-22T05:55:14;95859.38;;;6.69;48.48
86322;BME280;76978;42.798;23.336;2024-03-22T05:57:40;95858.63;;;6.80;47.53
86322;BME280;76978;42.798;23.336;2024-03-22T06:00:05;95863.84;;;6.91;47.10
86322;BME280;76978;42.798;23.336;2024-03-22T06:02:32;95865.53;;;7.04;47.12
86322;BME280;76978;42.798;23.336;2024-03-22T06:04:58;95860.28;;;7.18;46.15
86322;BME280;76978;42.798;23.336;2024-03-22T06:07:24;95857.94;;;7.26;45.36
86322;BME280;76978;42.798;23.336;2024-03-22T06:09:50;95860.31;;;7.29;45.99
86322;BME280;76978;42.798;23.336;2024-03-22T06:12:17;95858.25;;;7.34;47.02
86322;BME280;76978;42.798;23.336;2024-03-22T06:14:43;95853.84;;;7.47;47.05
86322;BME280;76978;42.798;23.336;2024-03-22T06:17:09;95860.47;;;7.63;48.08
86322;BME280;76978;42.798;23.336;2024-03-22T06:19:36;95855.78;;;7.68;47.83
86322;BME280;76978;42.798;23.336;2024-03-22T06:22:01;95856.28;;;7.73;47.55
86322;BME280;76978;42.798;23.336;2024-03-22T06:24:28;95863.69;;;7.89;47.25
86322;BME280;76978;42.798;23.336;2024-03-22T06:26:53;95858.34;;;8.03;47.22
86322;BME280;76978;42.798;23.336;2024-03-22T06:29:18;95856.16;;;8.21;46.88
86322;BME280;76978;42.798;23.336;2024-03-22T06:31:44;95859.00;;;8.40;46.20
86322;BME280;76978;42.798;23.336;2024-03-22T06:34:10;95860.88;;;8.49;45.75
86322;BME280;76978;42.798;23.336;2024-03-22T06:36:35;95864.41;;;8.70;45.18
86322;BME280;76978;42.798;23.336;2024-03-22T06:39:01;95859.22;;;8.93;44.29
86322;BME280;76978;42.798;23.336;2024-03-22T06:41:28;95868.78;;;9.13;44.32
86322;BME280;76978;42.798;23.336;2024-03-22T06:43:54;95865.78;;;9.40;44.39
86322;BME280;76978;42.798;23.336;2024-03-22T06:46:19;95869.06;;;9.63;44.09
86322;BME280;76978;42.798;23.336;2024-03-22T06:48:45;95867.09;;;9.87;42.65
86322;BME280;76978;42.798;23.336;2024-03-22T06:51:11;95870.47;;;10.09;42.03
86322;BME280;76978;42.798;23.336;2024-03-22T06:53:37;95869.28;;;10.24;41.30
86322;BME280;76978;42.798;23.336;2024-03-22T06:56:03;95882.91;;;10.36;40.10
86322;BME280;76978;42.798;23.336;2024-03-22T06:58:29;95873.31;;;10.48;40.23
86322;BME280;76978;42.798;23.336;2024-03-22T07:00:54;95883.88;;;10.65;40.42
86322;BME280;76978;42.798;23.336;2024-03-22T07:03:19;95884.50;;;10.88;40.97
86322;BME280;76978;42.798;23.336;2024-03-22T07:05:47;95886.06;;;11.10;40.41
86322;BME280;76978;42.798;23.336;2024-03-22T07:08:13;95874.41;;;11.25;39.56
86322;BME280;76978;42.798;23.336;2024-03-22T07:10:39;95876.47;;;11.31;38.49
86322;BME280;76978;42.798;23.336;2024-03-22T07:13:05;95885.81;;;11.23;38.65
86322;BME280;76978;42.798;23.336;2024-03-22T07:15:30;95879.41;;;11.17;39.68
86322;BME280;76978;42.798;23.336;2024-03-22T07:17:57;95877.28;;;11.32;39.84
86322;BME280;76978;42.798;23.336;2024-03-22T07:20:22;95877.56;;;11.58;39.78
86322;BME280;76978;42.798;23.336;2024-03-22T07:22:48;95875.97;;;11.86;38.42
86322;BME280;76978;42.798;23.336;2024-03-22T07:25:13;95865.06;;;12.02;38.25
86322;BME280;76978;42.798;23.336;2024-03-22T07:27:39;95873.31;;;12.25;38.93
86322;BME280;76978;42.798;23.336;2024-03-22T07:30:05;95879.03;;;12.38;36.73
86322;BME280;76978;42.798;23.336;2024-03-22T07:32:30;95875.72;;;12.55;36.82
86322;BME280;76978;42.798;23.336;2024-03-22T07:34:56;95874.88;;;12.64;35.91
86322;BME280;76978;42.798;23.336;2024-03-22T07:37:21;95875.47;;;12.86;35.76
86322;BME280;76978;42.798;23.336;2024-03-22T07:39:47;95869.66;;;13.01;36.11
86322;BME280;76978;42.798;23.336;2024-03-22T07:42:12;95877.91;;;13.24;36.22
86322;BME280;76978;42.798;23.336;2024-03-22T07:44:38;95869.00;;;13.27;34.68
86322;BME280;76978;42.798;23.336;2024-03-22T07:47:03;95874.75;;;13.48;34.77
86322;BME280;76978;42.798;23.336;2024-03-22T07:49:29;95877.06;;;13.69;34.65
86322;BME280;76978;42.798;23.336;2024-03-22T07:51:56;95870.38;;;13.84;33.60
86322;BME280;76978;42.798;23.336;2024-03-22T07:54:22;95864.94;;;13.96;33.23
86322;BME280;76978;42.798;23.336;2024-03-22T07:56:47;95867.69;;;14.12;33.75
86322;BME280;76978;42.798;23.336;2024-03-22T07:59:15;95868.25;;;14.06;32.71
86322;BME280;76978;42.798;23.336;2024-03-22T08:01:41;95863.25;;;13.86;33.63
86322;BME280;76978;42.798;23.336;2024-03-22T08:04:06;95872.66;;;14.05;33.14
86322;BME280;76978;42.798;23.336;2024-03-22T08:06:31;95870.38;;;14.28;34.35
86322;BME280;76978;42.798;23.336;2024-03-22T08:08:57;95867.66;;;14.56;32.34
86322;BME280;76978;42.798;23.336;2024-03-22T08:11:23;95874.03;;;14.43;32.11
86322;BME280;76978;42.798;23.336;2024-03-22T08:13:48;95869.28;;;14.57;31.27
86322;BME280;76978;42.798;23.336;2024-03-22T08:16:14;95865.19;;;14.80;32.68
86322;BME280;76978;42.798;23.336;2024-03-22T08:18:39;95863.84;;;15.10;30.98
86322;BME280;76978;42.798;23.336;2024-03-22T08:21:04;95857.44;;;15.30;30.91
86322;BME280;76978;42.798;23.336;2024-03-22T08:23:30;95856.00;;;15.52;31.29
86322;BME280;76978;42.798;23.336;2024-03-22T08:25:55;95854.75;;;15.73;30.66
86322;BME280;76978;42.798;23.336;2024-03-22T08:28:22;95852.94;;;15.73;29.00
86322;BME280;76978;42.798;23.336;2024-03-22T08:30:48;95859.84;;;15.24;29.87
86322;BME280;76978;42.798;23.336;2024-03-22T08:33:13;95854.41;;;15.01;30.05
86322;BME280;76978;42.798;23.336;2024-03-22T08:35:39;95848.25;;;14.76;30.94
86322;BME280;76978;42.798;23.336;2024-03-22T08:38:04;95853.69;;;14.91;30.68
86322;BME280;76978;42.798;23.336;2024-03-22T08:40:36;95844.22;;;15.24;31.47
86322;BME280;76978;42.798;23.336;2024-03-22T08:43:02;95846.72;;;15.58;30.04
86322;BME280;76978;42.798;23.336;2024-03-22T08:45:27;95844.84;;;16.01;30.69
86322;BME280;76978;42.798;23.336;2024-03-22T08:47:52;95840.41;;;16.42;29.46
86322;BME280;76978;42.798;23.336;2024-03-22T08:50:20;95845.25;;;16.61;28.22
86322;BME280;76978;42.798;23.336;2024-03-22T08:52:46;95837.09;;;16.64;27.87
86322;BME280;76978;42.798;23.336;2024-03-22T08:55:11;95844.63;;;16.43;27.48
86322;BME280;76978;42.798;23.336;2024-03-22T08:57:38;95847.09;;;16.12;28.55
86322;BME280;76978;42.798;23.336;2024-03-22T09:00:04;95835.66;;;15.31;29.35
86322;BME280;76978;42.798;23.336;2024-03-22T09:02:29;95836.75;;;15.21;29.32
86322;BME280;76978;42.798;23.336;2024-03-22T09:04:55;95847.41;;;15.01;30.12
86322;BME280;76978;42.798;23.336;2024-03-22T09:07:21;95839.22;;;14.54;30.39
86322;BME280;76978;42.798;23.336;2024-03-22T09:09:46;95836.00;;;14.94;30.86
86322;BME280;76978;42.798;23.336;2024-03-22T09:12:11;95819.44;;;14.95;30.38
86322;BME280;76978;42.798;23.336;2024-03-22T09:14:37;95824.34;;;15.06;30.32
86322;BME280;76978;42.798;23.336;2024-03-22T09:17:02;95820.03;;;15.40;30.33
86322;BME280;76978;42.798;23.336;2024-03-22T09:19:28;95821.38;;;15.60;29.08
86322;BME280;76978;42.798;23.336;2024-03-22T09:21:53;95821.16;;;15.21;29.94
86322;BME280;76978;42.798;23.336;2024-03-22T09:24:18;95814.00;;;15.39;30.02
86322;BME280;76978;42.798;23.336;2024-03-22T09:26:46;95814.44;;;15.85;29.17
86322;BME280;76978;42.798;23.336;2024-03-22T09:29:13;95815.31;;;15.35;29.23
86322;BME280;76978;42.798;23.336;2024-03-22T09:31:39;95816.25;;;15.18;30.00
86322;BME280;76978;42.798;23.336;2024-03-22T09:34:04;95812.34;;;15.14;29.81
86322;BME280;76978;42.798;23.336;2024-03-22T09:36:29;95809.47;;;15.33;29.51
86322;BME280;76978;42.798;23.336;2024-03-22T09:38:59;95799.44;;;15.62;29.38
86322;BME280;76978;42.798;23.336;2024-03-22T09:41:25;95808.69;;;16.30;28.71
86322;BME280;76978;42.798;23.336;2024-03-22T09:43:54;95803.16;;;16.80;27.35
86322;BME280;76978;42.798;23.336;2024-03-22T09:46:23;95793.34;;;16.43;27.74
86322;BME280;76978;42.798;23.336;2024-03-22T09:48:49;95806.75;;;15.83;27.70
86322;BME280;76978;42.798;23.336;2024-03-22T09:51:17;95803.16;;;15.84;28.15
86322;BME280;76978;42.798;23.336;2024-03-22T09:53:44;95794.56;;;16.00;28.39
86322;BME280;76978;42.798;23.336;2024-03-22T09:56:13;95793.09;;;15.98;28.26
86322;BME280;76978;42.798;23.336;2024-03-22T09:58:41;95789.00;;;15.95;27.77
86322;BME280;76978;42.798;23.336;2024-03-22T10:01:07;95780.25;;;15.96;28.31
86322;BME280;76978;42.798;23.336;2024-03-22T10:03:32;95782.50;;;15.83;27.68
86322;BME280;76978;42.798;23.336;2024-03-22T10:05:58;95778.72;;;16.26;28.80
86322;BME280;76978;42.798;23.336;2024-03-22T10:08:23;95789.03;;;16.75;26.79
86322;BME280;76978;42.798;23.336;2024-03-22T10:10:49;95781.69;;;17.32;27.11
86322;BME280;76978;42.798;23.336;2024-03-22T10:13:14;95780.53;;;18.04;25.98
86322;BME280;76978;42.798;23.336;2024-03-22T10:15:39;95785.25;;;17.85;25.08
86322;BME280;76978;42.798;23.336;2024-03-22T10:18:05;95777.59;;;17.38;25.48
86322;BME280;76978;42.798;23.336;2024-03-22T10:20:30;95783.38;;;17.25;26.14
86322;BME280;76978;42.798;23.336;2024-03-22T10:22:56;95782.00;;;17.60;25.71
86322;BME280;76978;42.798;23.336;2024-03-22T10:25:26;95777.63;;;17.99;24.56
86322;BME280;76978;42.798;23.336;2024-03-22T10:27:54;95777.19;;;18.10;25.90
86322;BME280;76978;42.798;23.336;2024-03-22T10:30:19;95763.34;;;18.53;24.63
86322;BME280;76978;42.798;23.336;2024-03-22T10:32:46;95755.94;;;18.87;24.53
86322;BME280;76978;42.798;23.336;2024-03-22T10:35:14;95761.00;;;19.24;24.23
86322;BME280;76978;42.798;23.336;2024-03-22T10:37:40;95763.81;;;19.23;23.00
86322;BME280;76978;42.798;23.336;2024-03-22T10:40:07;95756.16;;;19.64;23.70
86322;BME280;76978;42.798;23.336;2024-03-22T10:42:34;95751.91;;;19.63;22.61
86322;BME280;76978;42.798;23.336;2024-03-22T10:45:01;95756.34;;;19.62;23.28
86322;BME280;76978;42.798;23.336;2024-03-22T10:47:29;95751.91;;;19.84;22.95
86322;BME280;76978;42.798;23.336;2024-03-22T10:50:06;95748.16;;;20.21;23.62
86322;BME280;76978;42.798;23.336;2024-03-22T10:52:34;95755.00;;;20.22;22.29
86322;BME280;76978;42.798;23.336;2024-03-22T10:55:05;95749.28;;;20.12;21.88
86322;BME280;76978;42.798;23.336;2024-03-22T10:57:32;95753.47;;;20.07;22.76
86322;BME280;76978;42.798;23.336;2024-03-22T11:00:04;95735.97;;;19.58;23.28
86322;BME280;76978;42.798;23.336;2024-03-22T11:02:35;95739.09;;;19.32;23.06
86322;BME280;76978;42.798;23.336;2024-03-22T11:05:00;95736.09;;;18.92;22.78
86322;BME280;76978;42.798;23.336;2024-03-22T11:07:29;95735.41;;;18.39;23.21
86322;BME280;76978;42.798;23.336;2024-03-22T11:10:00;95727.00;;;18.00;23.01
86322;BME280;76978;42.798;23.336;2024-03-22T11:12:26;95723.94;;;18.11;23.74
86322;BME280;76978;42.798;23.336;2024-03-22T11:14:55;95721.09;;;18.35;25.32
86322;BME280;76978;42.798;23.336;2024-03-22T11:17:20;95716.94;;;18.70;23.93
86322;BME280;76978;42.798;23.336;2024-03-22T11:19:51;95719.72;;;18.54;22.83
86322;BME280;76978;42.798;23.336;2024-03-22T11:22:17;95718.66;;;18.48;23.95
86322;BME280;76978;42.798;23.336;2024-03-22T11:24:42;95725.31;;;18.36;23.35
86322;BME280;76978;42.798;23.336;2024-03-22T11:27:09;95723.50;;;18.51;22.46
86322;BME280;76978;42.798;23.336;2024-03-22T11:29:36;95719.06;;;18.81;24.25
86322;BME280;76978;42.798;23.336;2024-03-22T11:32:04;95711.19;;;19.18;23.69
86322;BME280;76978;42.798;23.336;2024-03-22T11:34:30;95707.69;;;19.53;22.23
86322;BME280;76978;42.798;23.336;2024-03-22T11:36:55;95700.84;;;19.52;21.94
86322;BME280;76978;42.798;23.336;2024-03-22T11:39:21;95703.34;;;19.18;21.84
86322;BME280;76978;42.798;23.336;2024-03-22T11:41:47;95697.88;;;18.62;22.75
86322;BME280;76978;42.798;23.336;2024-03-22T11:44:15;95692.03;;;18.45;22.64
86322;BME280;76978;42.798;23.336;2024-03-22T11:46:41;95691.16;;;18.67;22.79
86322;BME280;76978;42.798;23.336;2024-03-22T11:49:07;95690.81;;;18.92;21.66
86322;BME280;76978;42.798;23.336;2024-03-22T11:51:32;95680.06;;;19.23;22.07
86322;BME280;76978;42.798;23.336;2024-03-22T11:53:57;95674.03;;;19.50;20.30
86322;BME280;76978;42.798;23.336;2024-03-22T11:56:24;95677.44;;;19.44;20.68
86322;BME280;76978;42.798;23.336;2024-03-22T11:58:57;95665.03;;;19.81;20.97
86322;BME280;76978;42.798;23.336;2024-03-22T12:01:23;95677.88;;;20.04;20.06
86322;BME280;76978;42.798;23.336;2024-03-22T12:03:49;95673.69;;;20.09;19.79
86322;BME280;76978;42.798;23.336;2024-03-22T12:06:17;95669.53;;;19.93;19.21
86322;BME280;76978;42.798;23.336;2024-03-22T12:08:43;95669.19;;;19.68;20.08
86322;BME280;76978;42.798;23.336;2024-03-22T12:11:09;95671.22;;;19.52;20.00
86322;BME280;76978;42.798;23.336;2024-03-22T12:13:35;95664.09;;;19.18;20.06
86322;BME280;76978;42.798;23.336;2024-03-22T12:16:02;95675.38;;;18.97;21.93
86322;BME280;76978;42.798;23.336;2024-03-22T12:18:27;95667.78;;;18.80;22.02
86322;BME280;76978;42.798;23.336;2024-03-22T12:20:53;95661.47;;;18.60;22.48
86322;BME280;76978;42.798;23.336;2024-03-22T12:23:19;95657.72;;;18.48;22.45
86322;BME280;76978;42.798;23.336;2024-03-22T12:25:44;95654.59;;;18.23;22.30
86322;BME280;76978;42.798;23.336;2024-03-22T12:28:10;95654.56;;;17.64;22.19
86322;BME280;76978;42.798;23.336;2024-03-22T12:30:35;95646.53;;;17.51;22.06
86322;BME280;76978;42.798;23.336;2024-03-22T12:33:01;95658.31;;;17.84;23.08
86322;BME280;76978;42.798;23.336;2024-03-22T12:35:26;95635.34;;;18.24;23.18
86322;BME280;76978;42.798;23.336;2024-03-22T12:37:52;95644.03;;;18.82;20.79
86322;BME280;76978;42.798;23.336;2024-03-22T12:40:18;95639.91;;;19.37;20.30
86322;BME280;76978;42.798;23.336;2024-03-22T12:42:44;95640.94;;;19.15;19.92
86322;BME280;76978;42.798;23.336;2024-03-22T12:45:09;95637.09;;;18.89;20.80
86322;BME280;76978;42.798;23.336;2024-03-22T12:47:34;95636.81;;;19.27;21.39